sensor_id;sensor_type;location;lat;lon;timestamp;pressure;altitude;pressure_sealevel;temperature;humidity
63204;BME280;49297;43.210;27.914;2023-04-16T00:01:08;100980.16;;;14.71;68.08
63204;BME280;49297;43.210;27.914;2023-04-16T00:03:37;100967.50;;;14.73;68.35
63204;BME280;49297;43.210;27.914;2023-04-16T00:06:04;100972.81;;;14.73;68.07
63204;BME280;49297;43.210;27.914;2023-04-16T00:08:30;100976.31;;;14.73;68.32
63204;BME280;49297;43.210;27.914;2023-04-16T00:10:55;100978.81;;;14.75;68.08
63204;BME280;49297;43.210;27.914;2023-04-16T00:13:21;100980.16;;;14.79;67.96
63204;BME280;49297;43.210;27.914;2023-04-16T00:15:47;100978.84;;;14.83;67.98
63204;BME280;49297;43.210;27.914;2023-04-16T00:18:13;100975.19;;;14.84;68.12
63204;BME280;49297;43.210;27.914;2023-04-16T00:20:39;100975.19;;;14.84;68.29
63204;BME280;49297;43.210;27.914;2023-04-16T00:23:05;100976.03;;;14.84;68.26
63204;BME280;49297;43.210;27.914;2023-04-16T00:25:30;100976.72;;;14.87;67.79
63204;BME280;49297;43.210;27.914;2023-04-16T00:27:56;100977.56;;;14.87;68.07
63204;BME280;49297;43.210;27.914;2023-04-16T00:30:22;100977.56;;;14.87;67.90
63204;BME280;49297;43.210;27.914;2023-04-16T00:32:48;100969.56;;;14.87;67.82
63204;BME280;49297;43.210;27.914;2023-04-16T00:35:13;100967.88;;;14.86;67.82
63204;BME280;49297;43.210;27.914;2023-04-16T00:37:39;100964.69;;;14.82;67.60
63204;BME280;49297;43.210;27.914;2023-04-16T00:40:06;100965.00;;;14.79;67.69
63204;BME280;49297;43.210;27.914;2023-04-16T00:42:32;100966.69;;;14.80;67.69
63204;BME280;49297;43.210;27.914;2023-04-16T00:44:58;100960.69;;;14.78;68.09
63204;BME280;49297;43.210;27.914;2023-04-16T00:47:24;100956.50;;;14.76;67.77
63204;BME280;49297;43.210;27.914;2023-04-16T00:49:52;100962.00;;;14.74;67.98
63204;BME280;49297;43.210;27.914;2023-04-16T00:52:18;100967.16;;;14.76;68.17
63204;BME280;49297;43.210;27.914;2023-04-16T00:54:46;100963.34;;;14.78;68.18
63204;BME280;49297;43.210;27.914;2023-04-16T00:57:13;100966.16;;;14.77;68.07
63204;BME280;49297;43.210;27.914;2023-04-16T00:59:40;100954.69;;;14.76;68.37
63204;BME280;49297;43.210;27.914;2023-04-16T01:02:06;100965.50;;;14.75;68.04
63204;BME280;49297;43.210;27.914;2023-04-16T01:04:33;100958.34;;;14.75;67.66
63204;BME280;49297;43.210;27.914;2023-04-16T01:06:59;100938.84;;;14.75;68.07
63204;BME280;49297;43.210;27.914;2023-04-16T01:09:25;100952.31;;;14.73;67.73
63204;BME280;49297;43.210;27.914;2023-04-16T01:11:51;100958.63;;;14.72;67.78
63204;BME280;49297;43.210;27.914;2023-04-16T01:14:16;100955.31;;;14.70;68.25
63204;BME280;49297;43.210;27.914;2023-04-16T01:16:42;100947.47;;;14.69;68.17
63204;BME280;49297;43.210;27.914;2023-04-16T01:19:08;100945.97;;;14.66;68.25
63204;BME280;49297;43.210;27.914;2023-04-16T01:21:34;100939.66;;;14.67;68.21
63204;BME280;49297;43.210;27.914;2023-04-16T01:24:04;100939.31;;;14.70;68.11
63204;BME280;49297;43.210;27.914;2023-04-16T01:26:30;100927.81;;;14.70;68.20
63204;BME280;49297;43.210;27.914;2023-04-16T01:28:57;100930.66;;;14.68;68.05
63204;BME280;49297;43.210;27.914;2023-04-16T01:31:22;100935.81;;;14.70;67.87
63204;BME280;49297;43.210;27.914;2023-04-16T01:33:48;100935.81;;;14.70;68.34
63204;BME280;49297;43.210;27.914;2023-04-16T01:36:14;100935.00;;;14.69;67.99
63204;BME280;49297;43.210;27.914;2023-04-16T01:38:41;100932.66;;;14.66;68.04
63204;BME280;49297;43.210;27.914;2023-04-16T01:41:07;100929.97;;;14.66;68.21
63204;BME280;49297;43.210;27.914;2023-04-16T01:43:33;100934.31;;;14.67;68.23
63204;BME280;49297;43.210;27.914;2023-04-16T01:46:19;100928.81;;;14.69;68.50
63204;BME280;49297;43.210;27.914;2023-04-16T01:48:45;100933.16;;;14.70;68.31
63204;BME280;49297;43.210;27.914;2023-04-16T01:51:12;100929.81;;;14.68;68.04
63204;BME280;49297;43.210;27.914;2023-04-16T01:53:38;100924.50;;;14.68;68.33
63204;BME280;49297;43.210;27.914;2023-04-16T01:56:05;100929.81;;;14.68;68.51
63204;BME280;49297;43.210;27.914;2023-04-16T01:58:31;100930.66;;;14.68;68.42
63204;BME280;49297;43.210;27.914;2023-04-16T02:00:58;100925.31;;;14.68;68.10
63204;BME280;49297;43.210;27.914;2023-04-16T02:03:24;100934.13;;;14.69;68.44
63204;BME280;49297;43.210;27.914;2023-04-16T02:05:50;100939.47;;;14.69;68.54
63204;BME280;49297;43.210;27.914;2023-04-16T02:08:16;100925.47;;;14.66;68.48
63204;BME280;49297;43.210;27.914;2023-04-16T02:10:45;100928.13;;;14.66;68.42
63204;BME280;49297;43.210;27.914;2023-04-16T02:13:13;100912.16;;;14.66;68.54
63204;BME280;49297;43.210;27.914;2023-04-16T02:15:39;100921.84;;;14.68;68.45
63204;BME280;49297;43.210;27.914;2023-04-16T02:18:05;100920.31;;;14.65;68.13
63204;BME280;49297;43.210;27.914;2023-04-16T02:20:31;100918.81;;;14.62;68.48
63204;BME280;49297;43.210;27.914;2023-04-16T02:22:56;100911.97;;;14.60;68.19
63204;BME280;49297;43.210;27.914;2023-04-16T02:25:22;100915.06;;;14.55;67.92
63204;BME280;49297;43.210;27.914;2023-04-16T02:27:48;100911.72;;;14.53;68.62
63204;BME280;49297;43.210;27.914;2023-04-16T02:30:14;100911.72;;;14.53;68.25
63204;BME280;49297;43.210;27.914;2023-04-16T02:32:40;100909.06;;;14.53;68.25
63204;BME280;49297;43.210;27.914;2023-04-16T02:35:06;100909.06;;;14.53;68.12
63204;BME280;49297;43.210;27.914;2023-04-16T02:37:32;100906.25;;;14.55;68.09
63204;BME280;49297;43.210;27.914;2023-04-16T02:39:57;100898.41;;;14.53;68.54
63204;BME280;49297;43.210;27.914;2023-04-16T02:42:23;100894.91;;;14.53;68.38
63204;BME280;49297;43.210;27.914;2023-04-16T02:44:49;100895.75;;;14.53;68.23
63204;BME280;49297;43.210;27.914;2023-04-16T02:47:15;100895.59;;;14.55;68.31
63204;BME280;49297;43.210;27.914;2023-04-16T02:49:41;100894.59;;;14.56;68.41
63204;BME280;49297;43.210;27.914;2023-04-16T02:52:07;100895.28;;;14.58;68.76
63204;BME280;49297;43.210;27.914;2023-04-16T02:54:33;100902.31;;;14.59;68.26
63204;BME280;49297;43.210;27.914;2023-04-16T02:56:59;100899.47;;;14.60;68.36
63204;BME280;49297;43.210;27.914;2023-04-16T02:59:25;100898.47;;;14.61;68.31
63204;BME280;49297;43.210;27.914;2023-04-16T03:01:51;100894.00;;;14.62;68.52
63204;BME280;49297;43.210;27.914;2023-04-16T03:04:17;100900.16;;;14.62;68.12
63204;BME280;49297;43.210;27.914;2023-04-16T03:06:43;100898.16;;;14.64;68.67
63204;BME280;49297;43.210;27.914;2023-04-16T03:09:08;100905.16;;;14.65;68.57
63204;BME280;49297;43.210;27.914;2023-04-16T03:11:34;100908.50;;;14.68;68.74
63204;BME280;49297;43.210;27.914;2023-04-16T03:14:00;100907.50;;;14.69;68.22
63204;BME280;49297;43.210;27.914;2023-04-16T03:16:26;100908.19;;;14.71;68.52
63204;BME280;49297;43.210;27.914;2023-04-16T03:18:51;100912.50;;;14.72;68.31
63204;BME280;49297;43.210;27.914;2023-04-16T03:21:17;100914.03;;;14.74;68.34
63204;BME280;49297;43.210;27.914;2023-04-16T03:23:43;100906.88;;;14.75;68.40
63204;BME280;49297;43.210;27.914;2023-04-16T03:26:09;100914.72;;;14.76;68.43
63204;BME280;49297;43.210;27.914;2023-04-16T03:28:35;100906.88;;;14.75;68.08
63204;BME280;49297;43.210;27.914;2023-04-16T03:31:01;100911.38;;;14.74;67.99
63204;BME280;49297;43.210;27.914;2023-04-16T03:33:27;100920.88;;;14.77;68.18
63204;BME280;49297;43.210;27.914;2023-04-16T03:35:54;100919.88;;;14.78;67.87
63204;BME280;49297;43.210;27.914;2023-04-16T03:38:21;100909.22;;;14.78;67.76
63204;BME280;49297;43.210;27.914;2023-04-16T03:40:47;100916.06;;;14.80;67.83
63204;BME280;49297;43.210;27.914;2023-04-16T03:43:13;100916.72;;;14.82;67.86
63204;BME280;49297;43.210;27.914;2023-04-16T03:45:48;100912.22;;;14.83;68.23
63204;BME280;49297;43.210;27.914;2023-04-16T03:48:14;100913.75;;;14.85;68.17
63204;BME280;49297;43.210;27.914;2023-04-16T03:50:44;100914.41;;;14.88;68.02
63204;BME280;49297;43.210;27.914;2023-04-16T03:53:10;100917.91;;;14.88;68.03
63204;BME280;49297;43.210;27.914;2023-04-16T03:55:36;100924.91;;;14.89;67.93
63204;BME280;49297;43.210;27.914;2023-04-16T03:58:02;100923.22;;;14.88;67.75
63204;BME280;49297;43.210;27.914;2023-04-16T04:00:29;100923.06;;;14.90;67.98
63204;BME280;49297;43.210;27.914;2023-04-16T04:02:57;100924.91;;;14.89;67.99
63204;BME280;49297;43.210;27.914;2023-04-16T04:05:22;100928.41;;;14.90;68.13
63204;BME280;49297;43.210;27.914;2023-04-16T04:07:48;100928.41;;;14.90;68.31
63204;BME280;49297;43.210;27.914;2023-04-16T04:10:14;100924.75;;;14.91;67.93
63204;BME280;49297;43.210;27.914;2023-04-16T04:12:42;100921.44;;;14.89;68.14
63204;BME280;49297;43.210;27.914;2023-04-16T04:15:08;100906.25;;;14.89;68.35
63204;BME280;49297;43.210;27.914;2023-04-16T04:17:34;100902.75;;;14.89;68.24
63204;BME280;49297;43.210;27.914;2023-04-16T04:20:01;100905.44;;;14.89;68.53
63204;BME280;49297;43.210;27.914;2023-04-16T04:22:27;100908.91;;;14.89;68.67
63204;BME280;49297;43.210;27.914;2023-04-16T04:24:52;100913.94;;;14.92;68.48
63204;BME280;49297;43.210;27.914;2023-04-16T04:27:18;100917.28;;;14.94;68.55
63204;BME280;49297;43.210;27.914;2023-04-16T04:29:44;100923.28;;;14.96;68.60
63204;BME280;49297;43.210;27.914;2023-04-16T04:32:10;100928.28;;;14.99;69.13
63204;BME280;49297;43.210;27.914;2023-04-16T04:34:36;100920.66;;;15.04;68.19
63204;BME280;49297;43.210;27.914;2023-04-16T04:37:02;100930.50;;;15.12;68.37
63204;BME280;49297;43.210;27.914;2023-04-16T04:39:28;100933.34;;;15.19;68.17
63204;BME280;49297;43.210;27.914;2023-04-16T04:41:54;100930.03;;;15.25;67.97
63204;BME280;49297;43.210;27.914;2023-04-16T04:44:20;100939.03;;;15.32;67.98
63204;BME280;49297;43.210;27.914;2023-04-16T04:46:45;100932.88;;;15.40;67.50
63204;BME280;49297;43.210;27.914;2023-04-16T04:49:11;100932.09;;;15.48;67.50
63204;BME280;49297;43.210;27.914;2023-04-16T04:51:37;100925.25;;;15.53;67.85
63204;BME280;49297;43.210;27.914;2023-04-16T04:54:03;100918.41;;;15.59;67.08
63204;BME280;49297;43.210;27.914;2023-04-16T04:56:28;100921.41;;;15.64;67.64
63204;BME280;49297;43.210;27.914;2023-04-16T04:58:54;100918.25;;;15.69;67.15
63204;BME280;49297;43.210;27.914;2023-04-16T05:01:20;100923.63;;;15.77;67.08
63204;BME280;49297;43.210;27.914;2023-04-16T05:03:46;100927.13;;;15.86;67.04
63204;BME280;49297;43.210;27.914;2023-04-16T05:06:12;100928.78;;;15.95;66.35
63204;BME280;49297;43.210;27.914;2023-04-16T05:08:38;100930.66;;;16.03;66.49
63204;BME280;49297;43.210;27.914;2023-04-16T05:11:04;100920.09;;;16.09;66.09
63204;BME280;49297;43.210;27.914;2023-04-16T05:13:30;100915.59;;;16.18;65.73
63204;BME280;49297;43.210;27.914;2023-04-16T05:15:56;100925.25;;;16.27;65.39
63204;BME280;49297;43.210;27.914;2023-04-16T05:18:22;100934.06;;;16.36;65.13
63204;BME280;49297;43.210;27.914;2023-04-16T05:20:47;100927.25;;;16.42;65.14
63204;BME280;49297;43.210;27.914;2023-04-16T05:23:13;100923.22;;;16.46;64.96
63204;BME280;49297;43.210;27.914;2023-04-16T05:25:40;100924.03;;;16.46;64.58
63204;BME280;49297;43.210;27.914;2023-04-16T05:28:06;100924.69;;;16.48;64.69
63204;BME280;49297;43.210;27.914;2023-04-16T05:30:32;100922.53;;;16.52;64.62
63204;BME280;49297;43.210;27.914;2023-04-16T05:32:57;100919.50;;;16.55;64.73
63204;BME280;49297;43.210;27.914;2023-04-16T05:35:23;100921.69;;;16.60;64.67
63204;BME280;49297;43.210;27.914;2023-04-16T05:37:49;100919.97;;;16.67;64.67
63204;BME280;49297;43.210;27.914;2023-04-16T05:40:15;100924.47;;;16.74;64.74
63204;BME280;49297;43.210;27.914;2023-04-16T05:42:41;100913.75;;;16.83;64.02
63204;BME280;49297;43.210;27.914;2023-04-16T05:45:07;100915.56;;;16.90;64.26
63204;BME280;49297;43.210;27.914;2023-04-16T05:47:33;100914.03;;;16.96;63.56
63204;BME280;49297;43.210;27.914;2023-04-16T05:49:59;100910.69;;;17.02;63.73
63204;BME280;49297;43.210;27.914;2023-04-16T05:52:25;100903.78;;;17.08;63.44
63204;BME280;49297;43.210;27.914;2023-04-16T05:54:51;100911.56;;;17.18;63.17
63204;BME280;49297;43.210;27.914;2023-04-16T05:57:17;100916.88;;;17.26;63.01
63204;BME280;49297;43.210;27.914;2023-04-16T05:59:43;100920.53;;;17.33;63.08
63204;BME280;49297;43.210;27.914;2023-04-16T06:02:08;100916.66;;;17.36;63.20
63204;BME280;49297;43.210;27.914;2023-04-16T06:04:34;100915.00;;;17.35;62.23
63204;BME280;49297;43.210;27.914;2023-04-16T06:07:00;100908.78;;;17.34;62.61
63204;BME280;49297;43.210;27.914;2023-04-16T06:09:26;100910.81;;;17.32;62.35
63204;BME280;49297;43.210;27.914;2023-04-16T06:11:52;100912.97;;;17.37;62.33
63204;BME280;49297;43.210;27.914;2023-04-16T06:14:18;100907.06;;;17.41;62.58
63204;BME280;49297;43.210;27.914;2023-04-16T06:16:44;100911.72;;;17.47;62.03
63204;BME280;49297;43.210;27.914;2023-04-16T06:19:10;100908.16;;;17.55;61.90
63204;BME280;49297;43.210;27.914;2023-04-16T06:21:36;100899.41;;;17.61;61.43
63204;BME280;49297;43.210;27.914;2023-04-16T06:24:02;100903.22;;;17.67;61.38
63204;BME280;49297;43.210;27.914;2023-04-16T06:26:28;100906.19;;;17.72;61.45
63204;BME280;49297;43.210;27.914;2023-04-16T06:28:53;100908.13;;;17.78;60.87
63204;BME280;49297;43.210;27.914;2023-04-16T06:31:19;100906.44;;;17.85;60.41
63204;BME280;49297;43.210;27.914;2023-04-16T06:33:46;100915.59;;;17.91;60.26
63204;BME280;49297;43.210;27.914;2023-04-16T06:36:11;100914.06;;;17.97;59.71
63204;BME280;49297;43.210;27.914;2023-04-16T06:38:37;100912.97;;;18.06;59.65
63204;BME280;49297;43.210;27.914;2023-04-16T06:41:03;100916.56;;;18.13;59.64
63204;BME280;49297;43.210;27.914;2023-04-16T06:43:29;100917.78;;;18.25;59.09
63204;BME280;49297;43.210;27.914;2023-04-16T06:45:58;100914.28;;;18.40;58.77
63204;BME280;49297;43.210;27.914;2023-04-16T06:48:24;100914.19;;;18.48;58.22
63204;BME280;49297;43.210;27.914;2023-04-16T06:50:51;100915.69;;;18.51;58.29
63204;BME280;49297;43.210;27.914;2023-04-16T06:53:17;100912.81;;;18.52;57.95
63204;BME280;49297;43.210;27.914;2023-04-16T06:55:43;100913.91;;;18.58;57.79
63204;BME280;49297;43.210;27.914;2023-04-16T06:58:09;100909.75;;;18.55;57.16
63204;BME280;49297;43.210;27.914;2023-04-16T07:00:35;100910.13;;;18.52;56.69
63204;BME280;49297;43.210;27.914;2023-04-16T07:03:00;100914.00;;;18.35;57.15
63204;BME280;49297;43.210;27.914;2023-04-16T07:05:26;100922.75;;;18.29;57.64
63204;BME280;49297;43.210;27.914;2023-04-16T07:07:52;100934.69;;;18.26;58.23
63204;BME280;49297;43.210;27.914;2023-04-16T07:10:18;100938.75;;;18.22;58.72
63204;BME280;49297;43.210;27.914;2023-04-16T07:12:44;100940.41;;;17.85;58.44
63204;BME280;49297;43.210;27.914;2023-04-16T07:15:10;100937.72;;;17.39;59.54
63204;BME280;49297;43.210;27.914;2023-04-16T07:17:35;100941.56;;;17.13;60.29
63204;BME280;49297;43.210;27.914;2023-04-16T07:20:01;100936.09;;;16.98;61.41
63204;BME280;49297;43.210;27.914;2023-04-16T07:22:27;100943.00;;;16.84;61.94
63204;BME280;49297;43.210;27.914;2023-04-16T07:24:53;100936.28;;;16.80;62.58
63204;BME280;49297;43.210;27.914;2023-04-16T07:27:19;100939.78;;;16.81;62.42
63204;BME280;49297;43.210;27.914;2023-04-16T07:29:45;100934.78;;;16.86;62.61
63204;BME280;49297;43.210;27.914;2023-04-16T07:32:11;100930.25;;;16.94;62.47
63204;BME280;49297;43.210;27.914;2023-04-16T07:34:37;100931.22;;;17.02;62.22
63204;BME280;49297;43.210;27.914;2023-04-16T07:37:03;100910.09;;;17.15;62.23
63204;BME280;49297;43.210;27.914;2023-04-16T07:39:29;100910.47;;;17.35;61.38
63204;BME280;49297;43.210;27.914;2023-04-16T07:41:55;100911.19;;;17.52;60.07
63204;BME280;49297;43.210;27.914;2023-04-16T07:44:21;100914.09;;;17.65;59.33
63204;BME280;49297;43.210;27.914;2023-04-16T07:46:47;100911.06;;;17.68;58.52
63204;BME280;49297;43.210;27.914;2023-04-16T07:49:13;100912.72;;;17.69;58.18
63204;BME280;49297;43.210;27.914;2023-04-16T07:51:39;100906.50;;;17.77;58.07
63204;BME280;49297;43.210;27.914;2023-04-16T07:54:05;100897.00;;;17.89;58.05
63204;BME280;49297;43.210;27.914;2023-04-16T07:56:31;100907.13;;;18.02;57.79
63204;BME280;49297;43.210;27.914;2023-04-16T07:58:57;100903.06;;;18.06;57.78
63204;BME280;49297;43.210;27.914;2023-04-16T08:01:23;100903.34;;;18.12;57.75
63204;BME280;49297;43.210;27.914;2023-04-16T08:03:48;100902.44;;;18.19;57.59
63204;BME280;49297;43.210;27.914;2023-04-16T08:06:15;100910.22;;;18.29;57.39
63204;BME280;49297;43.210;27.914;2023-04-16T08:08:41;100906.63;;;18.37;57.13
63204;BME280;49297;43.210;27.914;2023-04-16T08:11:07;100915.13;;;18.40;56.48
63204;BME280;49297;43.210;27.914;2023-04-16T08:13:33;100909.28;;;18.52;56.17
63204;BME280;49297;43.210;27.914;2023-04-16T08:15:58;100905.53;;;18.61;55.50
63204;BME280;49297;43.210;27.914;2023-04-16T08:18:24;100903.34;;;18.71;55.21
63204;BME280;49297;43.210;27.914;2023-04-16T08:20:50;100908.81;;;18.78;55.46
63204;BME280;49297;43.210;27.914;2023-04-16T08:23:16;100905.63;;;18.82;55.50
63204;BME280;49297;43.210;27.914;2023-04-16T08:25:41;100909.94;;;18.83;55.02
63204;BME280;49297;43.210;27.914;2023-04-16T08:28:07;100892.34;;;18.81;55.64
63204;BME280;49297;43.210;27.914;2023-04-16T08:30:33;100890.34;;;18.83;55.91
63204;BME280;49297;43.210;27.914;2023-04-16T08:32:59;100886.63;;;18.84;55.74
63204;BME280;49297;43.210;27.914;2023-04-16T08:35:24;100887.13;;;18.88;55.78
63204;BME280;49297;43.210;27.914;2023-04-16T08:37:50;100870.72;;;18.97;55.95
63204;BME280;49297;43.210;27.914;2023-04-16T08:40:16;100871.28;;;19.14;55.52
63204;BME280;49297;43.210;27.914;2023-04-16T08:42:52;100855.59;;;19.33;55.59
63204;BME280;49297;43.210;27.914;2023-04-16T08:45:18;100855.97;;;19.51;55.12
63204;BME280;49297;43.210;27.914;2023-04-16T08:47:48;100855.03;;;19.66;55.01
63204;BME280;49297;43.210;27.914;2023-04-16T08:50:15;100860.63;;;19.86;54.42
63204;BME280;49297;43.210;27.914;2023-04-16T08:52:45;100861.91;;;19.90;53.66
63204;BME280;49297;43.210;27.914;2023-04-16T08:55:15;100864.38;;;19.91;53.72
63204;BME280;49297;43.210;27.914;2023-04-16T08:57:51;100852.59;;;19.92;53.27
63204;BME280;49297;43.210;27.914;2023-04-16T09:00:19;100840.44;;;19.96;52.47
63204;BME280;49297;43.210;27.914;2023-04-16T09:02:45;100834.28;;;20.03;52.80
63204;BME280;49297;43.210;27.914;2023-04-16T09:05:13;100845.66;;;20.05;52.68
63204;BME280;49297;43.210;27.914;2023-04-16T09:07:46;100850.06;;;20.12;52.41
63204;BME280;49297;43.210;27.914;2023-04-16T09:10:15;100849.22;;;20.12;51.52
63204;BME280;49297;43.210;27.914;2023-04-16T09:12:43;100841.53;;;20.09;51.70
63204;BME280;49297;43.210;27.914;2023-04-16T09:15:10;100845.47;;;20.06;51.36
63204;BME280;49297;43.210;27.914;2023-04-16T09:17:37;100842.78;;;20.06;51.05
63204;BME280;49297;43.210;27.914;2023-04-16T09:20:07;100841.97;;;20.06;51.21
63204;BME280;49297;43.210;27.914;2023-04-16T09:22:35;100829.91;;;20.02;51.69
63204;BME280;49297;43.210;27.914;2023-04-16T09:25:03;100830.16;;;20.00;52.36
63204;BME280;49297;43.210;27.914;2023-04-16T09:27:29;100825.72;;;19.86;52.40
63204;BME280;49297;43.210;27.914;2023-04-16T09:29:57;100822.25;;;19.70;53.12
63204;BME280;49297;43.210;27.914;2023-04-16T09:32:27;100821.31;;;19.56;52.92
63204;BME280;49297;43.210;27.914;2023-04-16T09:34:59;100823.03;;;19.43;53.48
63204;BME280;49297;43.210;27.914;2023-04-16T09:37:30;100823.66;;;19.16;52.57
63204;BME280;49297;43.210;27.914;2023-04-16T09:40:02;100823.38;;;18.90;53.02
63204;BME280;49297;43.210;27.914;2023-04-16T09:42:30;100826.31;;;18.80;53.74
63204;BME280;49297;43.210;27.914;2023-04-16T09:44:57;100820.44;;;18.85;53.60
63204;BME280;49297;43.210;27.914;2023-04-16T09:47:40;100826.81;;;18.69;53.80
63204;BME280;49297;43.210;27.914;2023-04-16T09:50:07;100827.09;;;18.59;54.16
63204;BME280;49297;43.210;27.914;2023-04-16T09:52:36;100831.28;;;18.46;54.28
63204;BME280;49297;43.210;27.914;2023-04-16T09:55:05;100826.75;;;18.32;54.99
63204;BME280;49297;43.210;27.914;2023-04-16T09:57:31;100825.94;;;18.32;55.40
63204;BME280;49297;43.210;27.914;2023-04-16T10:00:02;100822.34;;;18.24;55.50
63204;BME280;49297;43.210;27.914;2023-04-16T10:02:29;100824.00;;;18.25;55.59
63204;BME280;49297;43.210;27.914;2023-04-16T10:05:00;100827.06;;;18.22;55.52
63204;BME280;49297;43.210;27.914;2023-04-16T10:07:32;100818.28;;;17.99;55.96
63204;BME280;49297;43.210;27.914;2023-04-16T10:09:59;100827.91;;;17.85;56.93
63204;BME280;49297;43.210;27.914;2023-04-16T10:12:26;100828.28;;;17.82;56.90
63204;BME280;49297;43.210;27.914;2023-04-16T10:14:54;100842.13;;;17.70;57.41
63204;BME280;49297;43.210;27.914;2023-04-16T10:17:20;100825.75;;;17.65;57.78
63204;BME280;49297;43.210;27.914;2023-04-16T10:19:53;100836.75;;;17.70;57.81
63204;BME280;49297;43.210;27.914;2023-04-16T10:22:19;100841.09;;;17.72;57.75
63204;BME280;49297;43.210;27.914;2023-04-16T10:24:46;100836.97;;;17.84;57.94
63204;BME280;49297;43.210;27.914;2023-04-16T10:27:14;100843.91;;;17.93;57.19
63204;BME280;49297;43.210;27.914;2023-04-16T10:29:43;100833.94;;;17.87;57.06
63204;BME280;49297;43.210;27.914;2023-04-16T10:32:11;100831.31;;;17.79;57.00
63204;BME280;49297;43.210;27.914;2023-04-16T10:34:37;100834.44;;;17.67;57.12
63204;BME280;49297;43.210;27.914;2023-04-16T10:37:06;100823.53;;;17.54;57.44
63204;BME280;49297;43.210;27.914;2023-04-16T10:39:34;100827.69;;;17.57;58.03
63204;BME280;49297;43.210;27.914;2023-04-16T10:42:10;100829.81;;;17.61;57.76
63204;BME280;49297;43.210;27.914;2023-04-16T10:44:39;100832.72;;;17.51;57.91
63204;BME280;49297;43.210;27.914;2023-04-16T10:47:11;100825.06;;;17.48;57.91
63204;BME280;49297;43.210;27.914;2023-04-16T10:49:38;100831.44;;;17.47;57.69
63204;BME280;49297;43.210;27.914;2023-04-16T10:52:12;100821.72;;;17.46;57.73
63204;BME280;49297;43.210;27.914;2023-04-16T10:54:48;100825.50;;;17.37;57.05
63204;BME280;49297;43.210;27.914;2023-04-16T10:57:18;100829.78;;;17.23;57.96
63204;BME280;49297;43.210;27.914;2023-04-16T10:59:47;100850.66;;;17.28;58.08
63204;BME280;49297;43.210;27.914;2023-04-16T11:02:16;100867.53;;;17.51;57.99
63204;BME280;49297;43.210;27.914;2023-04-16T11:04:47;100852.19;;;17.83;57.37
63204;BME280;49297;43.210;27.914;2023-04-16T11:07:19;100844.41;;;18.26;56.62
63204;BME280;49297;43.210;27.914;2023-04-16T11:10:05;100843.59;;;18.92;54.96
63204;BME280;49297;43.210;27.914;2023-04-16T11:12:33;100828.41;;;19.43;53.38
63204;BME280;49297;43.210;27.914;2023-04-16T11:15:03;100824.34;;;19.47;52.62
63204;BME280;49297;43.210;27.914;2023-04-16T11:17:57;100819.53;;;19.92;51.61
63204;BME280;49297;43.210;27.914;2023-04-16T11:20:24;100830.63;;;20.59;49.96
63204;BME280;49297;43.210;27.914;2023-04-16T11:22:52;100824.16;;;20.88;49.09
63204;BME280;49297;43.210;27.914;2023-04-16T11:25:25;100813.25;;;21.36;48.29
63204;BME280;49297;43.210;27.914;2023-04-16T11:27:52;100811.38;;;21.30;47.68
63204;BME280;49297;43.210;27.914;2023-04-16T11:30:40;100811.78;;;21.40;48.16
63204;BME280;49297;43.210;27.914;2023-04-16T11:33:10;100802.88;;;21.93;46.93
63204;BME280;49297;43.210;27.914;2023-04-16T11:35:39;100799.28;;;22.33;45.77
63204;BME280;49297;43.210;27.914;2023-04-16T11:38:06;100798.25;;;22.72;45.11
63204;BME280;49297;43.210;27.914;2023-04-16T11:40:33;100787.56;;;22.52;44.55
63204;BME280;49297;43.210;27.914;2023-04-16T11:43:02;100784.03;;;22.58;45.13
63204;BME280;49297;43.210;27.914;2023-04-16T11:45:28;100786.19;;;23.13;44.09
63204;BME280;49297;43.210;27.914;2023-04-16T11:47:56;100783.50;;;23.64;43.26
63204;BME280;49297;43.210;27.914;2023-04-16T11:50:26;100776.34;;;23.94;42.51
63204;BME280;49297;43.210;27.914;2023-04-16T11:53:03;100791.06;;;23.99;41.74
63204;BME280;49297;43.210;27.914;2023-04-16T11:55:31;100791.81;;;24.06;42.00
63204;BME280;49297;43.210;27.914;2023-04-16T11:58:10;100803.38;;;24.13;41.64
63204;BME280;49297;43.210;27.914;2023-04-16T12:00:38;100794.28;;;24.26;41.75
63204;BME280;49297;43.210;27.914;2023-04-16T12:03:04;100798.88;;;24.44;41.21
63204;BME280;49297;43.210;27.914;2023-04-16T12:05:37;100805.00;;;24.69;41.59
63204;BME280;49297;43.210;27.914;2023-04-16T12:08:06;100803.91;;;24.59;40.66
63204;BME280;49297;43.210;27.914;2023-04-16T12:10:34;100807.56;;;24.64;41.32
63204;BME280;49297;43.210;27.914;2023-04-16T12:13:19;100818.59;;;24.81;40.21
63204;BME280;49297;43.210;27.914;2023-04-16T12:15:47;100811.94;;;24.47;40.38
63204;BME280;49297;43.210;27.914;2023-04-16T12:18:15;100812.31;;;24.32;40.84
63204;BME280;49297;43.210;27.914;2023-04-16T12:20:42;100819.06;;;24.41;40.85
63204;BME280;49297;43.210;27.914;2023-04-16T12:23:13;100831.03;;;24.33;40.81
63204;BME280;49297;43.210;27.914;2023-04-16T12:25:47;100829.31;;;24.58;40.37
63204;BME280;49297;43.210;27.914;2023-04-16T12:28:28;100826.59;;;24.76;40.75
63204;BME280;49297;43.210;27.914;2023-04-16T12:30:54;100809.47;;;24.94;40.38
63204;BME280;49297;43.210;27.914;2023-04-16T12:33:22;100804.88;;;24.64;40.63
63204;BME280;49297;43.210;27.914;2023-04-16T12:35:49;100798.63;;;24.64;40.45
63204;BME280;49297;43.210;27.914;2023-04-16T12:38:17;100791.75;;;24.80;40.28
63204;BME280;49297;43.210;27.914;2023-04-16T12:40:44;100787.50;;;25.14;39.67